Time;durP1;ratioP1;P1;durP2;ratioP2;P2;SDS_P1;SDS_P2;PMS_P1;PMS_P2;Temp;Humidity;BMP_temperature;BMP_pressure;BME280_temperature;BME280_humidity;BME280_pressure;Samples;Min_cycle;Max_cycle;Signal;HPM_P1;HPM_P2
2021/11/02 00:00:06;;;;;;;8.70;4.20;;;7.30;99.90;;;;;;5055988;28;20052;-83
2021/11/02 00:02:49;;;;;;;12.60;4.20;;;7.30;99.90;;;;;;5039919;28;20054;-84
2021/11/02 00:05:24;;;;;;;9.05;3.60;;;7.20;99.90;;;;;;5039523;28;20041;-84
2021/11/02 00:08:48;;;;;;;;;;;;;;;;;;;;;
2021/11/02 00:12:24;;;;;;;12.52;3.88;;;7.20;99.90;;;;;;5043616;28;20061;-84
2021/11/02 00:15:51;;;;;;;10.00;4.57;;;7.20;99.90;;;;;;4979553;28;20054;-84
2021/11/02 00:18:52;;;;;;;9.45;3.58;;;7.30;99.90;;;;;;5027176;28;20526;-83
2021/11/02 00:22:14;;;;;;;9.57;4.15;;;7.10;99.90;;;;;;5017863;28;20046;-83
2021/11/02 00:24:56;;;;;;;9.10;3.95;;;7.60;99.90;;;;;;5046847;28;20060;-84
2021/11/02 00:27:28;;;;;;;13.68;4.57;;;7.10;99.90;;;;;;5012393;28;20046;-85
2021/11/02 00:30:27;;;;;;;8.57;5.25;;;7.00;99.90;;;;;;5028945;28;20057;-83
2021/11/02 00:33:26;;;;;;;;;;;;;;;;;;;;;
2021/11/02 00:36:17;;;;;;;7.25;4.00;;;6.90;99.90;;;;;;5013888;28;20062;-85
2021/11/02 00:39:19;;;;;;;;;;;;;;;;;;;;;
2021/11/02 00:42:14;;;;;;;8.73;3.65;;;6.80;99.90;;;;;;5027624;28;20049;-86
2021/11/02 00:44:59;;;;;;;10.70;4.30;;;6.80;99.90;;;;;;5018781;28;20053;-85
2021/11/02 00:47:53;;;;;;;;;;;;;;;;;;;;;
2021/11/02 00:51:15;;;;;;;18.95;5.00;;;6.80;99.90;;;;;;5027501;28;20046;-85
2021/11/02 00:54:39;;;;;;;9.30;4.72;;;6.70;99.90;;;;;;5010248;28;20046;-86
2021/11/02 00:57:30;;;;;;;;;;;;;;;;;;;;;
2021/11/02 01:00:38;;;;;;;12.45;4.45;;;6.60;99.90;;;;;;5017740;28;20058;-84
2021/11/02 01:03:13;;;;;;;9.45;4.15;;;5.90;99.90;;;;;;5029490;28;20057;-84
2021/11/02 01:05:42;;;;;;;15.15;4.78;;;6.60;99.90;;;;;;5011481;28;20079;-85
2021/11/02 01:08:43;;;;;;;9.20;4.13;;;6.50;99.90;;;;;;5015475;28;20443;-85
2021/11/02 01:12:11;;;;;;;;;;;;;;;;;;;;;
2021/11/02 01:14:49;;;;;;;6.75;3.15;;;6.50;99.90;;;;;;5024439;28;20049;-84
2021/11/02 01:17:47;;;;;;;14.18;4.35;;;6.40;99.90;;;;;;5024934;28;20053;-84
2021/11/02 01:20:16;;;;;;;9.88;4.13;;;6.40;99.90;;;;;;4998675;28;20053;-85
2021/11/02 01:23:37;;;;;;;11.63;4.70;;;6.30;99.90;;;;;;5024653;28;20052;-84
2021/11/02 01:26:38;;;;;;;15.18;5.32;;;6.30;99.90;;;;;;5012906;28;20041;-85
2021/11/02 01:29:09;;;;;;;10.43;4.20;;;6.30;99.90;;;;;;5026550;28;20053;-82
2021/11/02 01:31:40;;;;;;;11.50;4.07;;;6.20;99.90;;;;;;5011008;28;20060;-85
2021/11/02 01:34:11;;;;;;;17.67;4.82;;;6.20;99.90;;;;;;5027158;28;20049;-83
2021/11/02 01:36:55;;;;;;;9.15;4.95;;;6.10;99.90;;;;;;5013356;28;20054;-85
2021/11/02 01:39:37;;;;;;;9.70;5.32;;;6.00;99.90;;;;;;5021468;28;20046;-86
2021/11/02 01:42:10;;;;;;;14.18;4.30;;;6.10;99.90;;;;;;5020788;28;20053;-85
2021/11/02 01:45:27;;;;;;;;;;;;;;;;;;;;;
2021/11/02 01:48:30;;;;;;;18.73;3.97;;;6.00;99.90;;;;;;5024426;28;20594;-87
2021/11/02 01:51:17;;;;;;;11.73;4.55;;;6.00;99.90;;;;;;5026596;28;20056;-84
2021/11/02 01:53:50;;;;;;;8.55;3.70;;;6.00;99.90;;;;;;5011418;28;20042;-88
2021/11/02 01:56:27;;;;;;;10.48;3.78;;;5.90;99.90;;;;;;4752460;28;10000570;-85
2021/11/02 01:59:03;;;;;;;6.53;3.38;;;5.90;99.90;;;;;;4660122;28;10000641;-88
2021/11/02 02:02:07;;;;;;;8.82;4.10;;;5.90;99.90;;;;;;5031232;28;20045;-84
2021/11/02 02:05:01;;;;;;;15.88;4.88;;;5.80;99.90;;;;;;5026552;28;20045;-84
2021/11/02 02:08:05;;;;;;;11.55;4.00;;;5.90;99.90;;;;;;5029960;28;20041;-84
2021/11/02 02:11:11;;;;;;;13.63;5.13;;;5.80;99.90;;;;;;5012569;28;20500;-83
2021/11/02 02:14:21;;;;;;;5.88;3.45;;;5.80;99.90;;;;;;5028503;28;20050;-83
2021/11/02 02:16:55;;;;;;;12.23;3.80;;;5.80;99.90;;;;;;5012210;28;20053;-83
2021/11/02 02:19:52;;;;;;;8.52;4.32;;;5.80;99.90;;;;;;5035359;28;20053;-83
2021/11/02 02:22:52;;;;;;;9.98;3.65;;;4.80;99.90;;;;;;5029125;28;20055;-85
2021/11/02 02:25:35;;;;;;;10.23;3.47;;;5.80;99.90;;;;;;5030253;28;20049;-82
2021/11/02 02:28:37;;;;;;;7.68;5.32;;;5.80;99.90;;;;;;5013889;28;20060;-82
2021/11/02 02:31:22;;;;;;;8.43;4.18;;;5.90;99.90;;;;;;5021358;28;20064;-83
2021/11/02 02:33:51;;;;;;;9.02;2.95;;;5.80;99.90;;;;;;5014127;28;20045;-85
2021/11/02 02:36:35;;;;;;;7.03;3.00;;;5.80;99.90;;;;;;5011078;28;20041;-84
2021/11/02 02:39:10;;;;;;;13.20;3.65;;;5.80;99.90;;;;;;5045228;28;20067;-84
2021/11/02 02:41:45;;;;;;;12.30;3.95;;;5.90;99.90;;;;;;5025599;28;20068;-85
2021/11/02 02:44:30;;;;;;;15.98;5.50;;;5.80;99.90;;;;;;5026794;28;20053;-83
2021/11/02 02:47:02;;;;;;;6.13;3.63;;;5.80;99.90;;;;;;4996917;28;20057;-81
2021/11/02 02:49:37;;;;;;;15.85;3.80;;;5.80;99.90;;;;;;5025496;28;20052;-84
2021/11/02 02:52:07;;;;;;;8.13;2.95;;;5.80;99.90;;;;;;5010118;28;20056;-83
2021/11/02 02:54:57;;;;;;;13.90;4.57;;;5.80;99.90;;;;;;5027218;28;20057;-82
2021/11/02 02:57:29;;;;;;;9.80;3.17;;;5.90;99.90;;;;;;5013421;28;20049;-81
2021/11/02 03:00:12;;;;;;;12.27;4.38;;;7.20;99.90;;;;;;5043957;28;20076;-85
2021/11/02 03:02:48;;;;;;;11.32;3.72;;;5.70;99.90;;;;;;5025993;28;20050;-83
2021/11/02 03:05:23;;;;;;;9.68;3.45;;;5.90;99.90;;;;;;5012976;28;20052;-82
2021/11/02 03:07:57;;;;;;;17.60;5.22;;;5.80;99.90;;;;;;5030450;28;20056;-83
2021/11/02 03:10:27;;;;;;;11.48;4.82;;;5.80;99.90;;;;;;5013914;28;20047;-83
2021/11/02 03:13:06;;;;;;;8.23;3.78;;;5.80;99.90;;;;;;5016006;28;20482;-84
2021/11/02 04:46:01;;;;;;;12.85;7.18;;;5.20;99.90;;;;;;5000296;28;20049;-84
2021/11/02 05:09:08;;;;;;;17.50;6.28;;;5.10;99.90;;;;;;5019792;28;20045;-85
2021/11/02 05:59:00;;;;;;;14.80;4.18;;;6.10;99.90;;;;;;5026007;28;20060;-85
2021/11/02 06:01:51;;;;;;;13.00;4.28;;;6.20;99.90;;;;;;5003542;28;20056;-84
2021/11/02 06:29:28;;;;;;;;;;;;;;;;;;;;;
2021/11/02 06:32:13;;;;;;;20.08;4.68;;;4.40;99.90;;;;;;4931562;29;20539;-85
2021/11/02 08:48:35;;;;;;;18.38;7.28;;;7.40;99.90;;;;;;5018341;28;20046;-86
2021/11/02 08:51:03;;;;;;;16.73;7.20;;;6.40;99.90;;;;;;5006660;28;20060;-87
2021/11/02 08:53:34;;;;;;;16.85;6.72;;;6.50;99.90;;;;;;5000480;28;20086;-86
2021/11/02 08:56:09;;;;;;;15.77;7.78;;;6.50;99.90;;;;;;5023146;28;20053;-86
2021/11/02 08:58:37;;;;;;;18.70;8.07;;;8.00;99.90;;;;;;5017570;28;20045;-86
2021/11/02 09:01:05;;;;;;;13.07;5.43;;;6.70;99.90;;;;;;4985819;28;20049;-85
2021/11/02 09:03:36;;;;;;;16.05;6.85;;;6.70;99.90;;;;;;5004037;28;20046;-87
2021/11/02 09:06:07;;;;;;;24.80;10.70;;;6.80;99.90;;;;;;4999881;28;20054;-87
2021/11/02 09:08:41;;;;;;;19.85;6.93;;;6.80;99.90;;;;;;4979152;28;20502;-87
2021/11/02 09:11:13;;;;;;;15.05;7.68;;;6.90;99.90;;;;;;4987289;28;20053;-85
2021/11/02 09:13:50;;;;;;;11.98;6.10;;;6.90;99.90;;;;;;5031601;28;20053;-87
2021/11/02 09:16:23;;;;;;;17.85;7.18;;;7.00;99.90;;;;;;5014509;28;20050;-86
2021/11/02 09:18:53;;;;;;;13.25;6.20;;;7.00;99.90;;;;;;4997509;28;20057;-86
2021/11/02 09:21:23;;;;;;;11.57;5.88;;;7.20;99.90;;;;;;4996671;28;20056;-87
2021/11/02 09:23:53;;;;;;;13.35;8.05;;;7.20;99.90;;;;;;4998213;28;20058;-87
2021/11/02 09:26:23;;;;;;;14.57;6.43;;;7.20;99.90;;;;;;5012624;28;20057;-85
2021/11/02 09:28:52;;;;;;;11.25;5.88;;;7.30;99.90;;;;;;4999250;28;20517;-86
2021/11/02 09:31:27;;;;;;;20.83;8.05;;;7.80;99.90;;;;;;4980912;28;20622;-87
2021/11/02 09:33:55;;;;;;;24.55;10.02;;;7.40;99.90;;;;;;4962273;28;20050;-87
2021/11/02 09:36:30;;;;;;;16.70;5.63;;;7.50;99.90;;;;;;5013825;28;20037;-85
2021/11/02 09:39:03;;;;;;;19.35;7.05;;;7.50;99.90;;;;;;5017051;28;20042;-87
2021/11/02 09:41:50;;;;;;;31.77;12.30;;;7.60;99.90;;;;;;4980807;28;20061;-85
2021/11/02 09:44:29;;;;;;;14.55;5.20;;;7.60;99.90;;;;;;4980005;28;20050;-86
2021/11/02 09:47:09;;;;;;;19.23;6.47;;;7.70;99.90;;;;;;5011626;28;20057;-87
2021/11/02 09:49:55;;;;;;;16.77;6.63;;;7.80;99.90;;;;;;4965689;28;20061;-85
2021/11/02 09:52:34;;;;;;;17.02;6.15;;;7.90;99.90;;;;;;5014796;28;20137;-88
2021/11/02 09:55:32;;;;;;;12.93;5.57;;;7.90;99.90;;;;;;5015134;28;20072;-87
2021/11/02 09:58:03;;;;;;;16.92;6.20;;;8.00;99.90;;;;;;5029461;28;20052;-87
2021/11/02 10:00:33;;;;;;;16.40;5.50;;;8.00;99.90;;;;;;5002025;28;20046;-87
2021/11/02 10:03:41;;;;;;;12.10;6.57;;;8.10;99.90;;;;;;4966577;28;20062;-86
2021/11/02 10:06:32;;;;;;;9.48;5.05;;;8.10;99.90;;;;;;5015764;28;20124;-89
2021/11/02 10:09:18;;;;;;;18.80;6.93;;;8.20;99.90;;;;;;4997663;28;20042;-88
2021/11/02 10:12:02;;;;;;;13.15;6.40;;;8.20;99.90;;;;;;4980496;28;20390;-88
2021/11/02 10:14:54;;;;;;;12.90;6.18;;;8.30;99.90;;;;;;4979208;28;20384;-89
2021/11/02 10:17:32;;;;;;;10.05;4.85;;;8.30;99.90;;;;;;5001178;28;20438;-85
2021/11/02 10:20:08;;;;;;;16.85;7.38;;;8.40;99.90;;;;;;4980698;28;20050;-87
2021/11/02 10:23:13;;;;;;;12.82;5.97;;;7.60;99.90;;;;;;4971985;28;20046;-88
2021/11/02 10:25:50;;;;;;;11.55;4.55;;;8.50;99.90;;;;;;5001124;28;20503;-87
2021/11/02 10:28:39;;;;;;;13.77;5.10;;;8.60;99.90;;;;;;4980099;28;20058;-86
2021/11/02 10:31:12;;;;;;;17.40;5.55;;;8.60;99.90;;;;;;4976189;28;20043;-86
2021/11/02 10:33:52;;;;;;;12.57;4.35;;;8.70;99.90;;;;;;4968678;28;20063;-87
2021/11/02 10:36:34;;;;;;;8.70;5.45;;;8.80;99.90;;;;;;4959153;28;20047;-88
2021/11/02 10:39:17;;;;;;;14.75;4.70;;;8.80;99.90;;;;;;4970250;28;20051;-88
2021/11/02 10:42:03;;;;;;;10.88;4.10;;;8.90;99.90;;;;;;4968811;28;20055;-87
2021/11/02 10:44:48;;;;;;;14.07;5.55;;;8.90;99.90;;;;;;4988923;28;20066;-88
2021/11/02 10:47:31;;;;;;;13.88;4.80;;;9.00;99.90;;;;;;4969880;28;20430;-84
2021/11/02 10:50:06;;;;;;;16.30;5.68;;;9.10;99.90;;;;;;4973521;28;20054;-86
2021/11/02 10:52:36;;;;;;;9.65;4.15;;;9.10;99.90;;;;;;4980853;28;20050;-86
2021/11/02 10:55:36;;;;;;;12.67;5.13;;;9.20;99.90;;;;;;4977414;28;20055;-82
2021/11/02 10:58:31;;;;;;;11.52;4.20;;;9.40;99.90;;;;;;4972246;28;20050;-83
2021/11/02 11:01:07;;;;;;;13.48;4.30;;;9.40;99.90;;;;;;4986282;28;20062;-86
2021/11/02 11:03:41;;;;;;;7.18;3.55;;;9.40;99.90;;;;;;4984407;28;20054;-84
2021/11/02 11:06:16;;;;;;;6.43;2.83;;;9.40;99.90;;;;;;4976108;28;20372;-85
2021/11/02 11:08:48;;;;;;;10.85;4.00;;;9.50;99.90;;;;;;4973943;28;20074;-87
2021/11/02 11:11:18;;;;;;;6.47;3.58;;;9.50;99.90;;;;;;4998979;28;20054;-85
2021/11/02 11:13:51;;;;;;;6.13;3.83;;;9.60;99.90;;;;;;5013382;28;20046;-87
2021/11/02 11:16:29;;;;;;;20.85;5.85;;;9.70;99.90;;;;;;5015394;28;20045;-87
2021/11/02 11:19:10;;;;;;;12.38;3.00;;;9.80;99.90;;;;;;5009099;28;20053;-86
2021/11/02 11:21:42;;;;;;;8.27;4.50;;;9.80;99.90;;;;;;4996589;28;20069;-86
2021/11/02 11:24:16;;;;;;;6.65;3.08;;;10.10;99.90;;;;;;5032601;28;20417;-87
2021/11/02 11:26:57;;;;;;;8.20;2.70;;;9.90;99.90;;;;;;4984081;28;20430;-87
2021/11/02 11:29:27;;;;;;;7.87;2.67;;;10.00;99.90;;;;;;5015830;28;20042;-86
2021/11/02 11:32:00;;;;;;;9.27;2.73;;;10.10;99.90;;;;;;5026660;28;20053;-87
2021/11/02 11:34:32;;;;;;;4.85;2.55;;;10.20;99.90;;;;;;4988892;28;20057;-86
2021/11/02 11:37:09;;;;;;;14.48;3.72;;;10.30;99.90;;;;;;5015610;28;20057;-87
2021/11/02 11:39:44;;;;;;;6.88;3.65;;;10.40;99.90;;;;;;5011121;28;20046;-89
2021/11/02 11:42:18;;;;;;;9.07;3.28;;;10.50;99.90;;;;;;5006885;28;20051;-88
2021/11/02 11:44:53;;;;;;;9.57;2.88;;;10.50;99.90;;;;;;4989138;28;20615;-87
2021/11/02 11:47:25;;;;;;;10.55;3.17;;;10.60;99.90;;;;;;5018242;28;20042;-89
2021/11/02 11:49:55;;;;;;;7.80;2.40;;;10.70;99.90;;;;;;5018065;28;20058;-88
2021/11/02 11:52:26;;;;;;;7.65;3.10;;;10.70;99.90;;;;;;4983141;28;20052;-88
2021/11/02 11:54:56;;;;;;;16.30;4.10;;;10.80;99.90;;;;;;5003954;28;20050;-88
2021/11/02 11:57:31;;;;;;;7.40;2.63;;;10.90;99.90;;;;;;5003479;28;20045;-87
2021/11/02 12:00:07;;;;;;;7.95;3.13;;;11.00;99.90;;;;;;4989526;28;20043;-88
2021/11/02 12:03:08;;;;;;;11.27;3.25;;;11.00;99.90;;;;;;5023802;28;20291;-88
2021/11/02 12:05:44;;;;;;;4.43;2.55;;;11.10;99.90;;;;;;5029212;28;20049;-88
2021/11/02 12:08:31;;;;;;;5.63;2.60;;;11.20;99.90;;;;;;5007062;28;20049;-86
2021/11/02 12:11:04;;;;;;;5.75;2.00;;;11.20;99.90;;;;;;4987030;28;20058;-88
2021/11/02 12:13:40;;;;;;;11.30;2.72;;;11.30;99.90;;;;;;5007839;28;20052;-88
2021/11/02 12:16:24;;;;;;;5.82;2.90;;;11.30;99.90;;;;;;5028640;28;20053;-88
2021/11/02 12:19:03;;;;;;;7.28;2.25;;;11.40;99.90;;;;;;5026017;28;20054;-88
2021/11/02 12:21:36;;;;;;;7.85;3.13;;;11.50;99.90;;;;;;5015649;28;20117;-89
2021/11/02 12:24:07;;;;;;;5.03;2.25;;;11.60;99.90;;;;;;5018855;28;20057;-89
2021/11/02 12:26:50;;;;;;;5.70;2.15;;;11.60;99.90;;;;;;4996270;28;20046;-88
2021/11/02 12:29:27;;;;;;;7.00;2.53;;;11.70;99.90;;;;;;5013891;28;20045;-89
2021/11/02 12:32:06;;;;;;;8.98;1.90;;;11.80;99.90;;;;;;5010969;28;20051;-89
2021/11/02 12:34:55;;;;;;;4.55;1.63;;;11.80;99.90;;;;;;5020614;28;20040;-90
2021/11/02 12:37:28;;;;;;;7.63;2.33;;;11.90;99.90;;;;;;4676703;28;10000638;-89
2021/11/02 12:40:14;;;;;;;6.18;3.10;;;11.90;99.90;;;;;;5032332;28;20071;-88
2021/11/02 12:42:44;;;;;;;2.92;2.00;;;12.00;99.90;;;;;;5033643;28;20053;-87
2021/11/02 12:45:15;;;;;;;13.50;2.33;;;12.00;99.90;;;;;;4989220;28;20045;-87
2021/11/02 12:47:49;;;;;;;6.53;1.67;;;12.10;99.90;;;;;;5003952;28;20058;-89
2021/11/02 12:50:21;;;;;;;7.65;3.05;;;12.10;99.90;;;;;;5015578;28;20046;-88
2021/11/02 12:52:51;;;;;;;4.55;2.15;;;12.20;99.90;;;;;;4991270;28;20049;-89
2021/11/02 12:55:23;;;;;;;5.97;2.65;;;12.30;99.90;;;;;;5016044;28;20053;-91
2021/11/02 12:58:08;;;;;;;3.03;1.38;;;12.20;99.90;;;;;;4987332;28;20054;-88
2021/11/02 13:00:59;;;;;;;5.22;1.48;;;12.20;99.90;;;;;;5021941;28;20046;-89
2021/11/02 13:03:35;;;;;;;13.43;1.92;;;12.20;99.90;;;;;;5036947;28;20485;-87
2021/11/02 13:06:07;;;;;;;7.72;2.33;;;12.20;99.90;;;;;;5007078;28;20046;-88
2021/11/02 13:09:00;;;;;;;9.27;2.13;;;12.90;99.90;;;;;;4997399;28;20521;-90
2021/11/02 13:11:30;;;;;;;12.85;3.85;;;12.20;99.90;;;;;;5001651;28;20046;-88
2021/11/02 13:14:01;;;;;;;8.35;2.30;;;12.30;99.90;;;;;;4971646;28;20054;-89
2021/11/02 13:16:52;;;;;;;6.22;1.88;;;12.40;99.90;;;;;;4992234;28;20065;-88
2021/11/02 13:19:24;;;;;;;4.97;1.48;;;12.40;99.90;;;;;;5014036;28;20413;-87
2021/11/02 13:21:53;;;;;;;1.45;1.20;;;12.40;99.90;;;;;;5010047;28;20045;-89
2021/11/02 13:24:23;;;;;;;3.75;2.20;;;12.40;99.90;;;;;;5001240;28;20049;-86
2021/11/02 13:26:55;;;;;;;5.53;1.73;;;12.40;99.90;;;;;;4997447;28;20042;-88
2021/11/02 13:29:25;;;;;;;5.68;2.00;;;12.40;99.90;;;;;;5002659;28;20046;-88
2021/11/02 13:31:54;;;;;;;2.58;1.50;;;12.50;99.90;;;;;;5003833;28;20053;-87
2021/11/02 13:34:34;;;;;;;5.05;2.05;;;12.50;99.90;;;;;;5018621;28;20057;-90
2021/11/02 13:37:10;;;;;;;2.10;1.50;;;12.50;99.90;;;;;;5032561;28;20053;-88
2021/11/02 13:39:52;;;;;;;6.75;1.77;;;12.50;99.90;;;;;;5006815;28;20425;-88
2021/11/02 13:42:50;;;;;;;2.88;1.67;;;12.50;99.90;;;;;;5011295;28;20049;-89
2021/11/02 13:45:22;;;;;;;4.15;1.75;;;12.50;99.90;;;;;;5009502;28;20041;-86
2021/11/02 13:47:52;;;;;;;5.07;1.88;;;12.50;99.90;;;;;;5001104;28;20046;-89
2021/11/02 13:50:21;;;;;;;5.25;1.90;;;12.40;99.90;;;;;;4984953;28;20050;-90
2021/11/02 13:52:57;;;;;;;10.35;2.03;;;12.50;99.90;;;;;;4998910;28;20053;-88
2021/11/02 13:55:27;;;;;;;2.90;1.77;;;11.50;99.90;;;;;;4996558;28;20069;-88
2021/11/02 13:57:54;;;;;;;8.77;1.90;;;12.50;99.90;;;;;;4994953;28;20054;-87
2021/11/02 14:00:23;;;;;;;9.25;1.85;;;12.50;99.90;;;;;;5009576;28;20046;-87
2021/11/02 14:02:52;;;;;;;8.13;2.00;;;12.50;99.90;;;;;;5015443;28;20061;-88
2021/11/02 14:05:20;;;;;;;6.65;2.08;;;12.50;99.90;;;;;;4996326;28;20401;-89
2021/11/02 14:07:48;;;;;;;6.05;1.77;;;12.50;99.90;;;;;;5015110;28;20080;-88
2021/11/02 14:10:17;;;;;;;4.07;1.60;;;12.50;99.90;;;;;;4982931;28;20054;-88
2021/11/02 14:12:53;;;;;;;3.72;2.13;;;12.50;99.90;;;;;;4999367;28;20057;-89
2021/11/02 14:15:31;;;;;;;4.53;2.50;;;12.60;99.90;;;;;;4978441;28;20058;-89
2021/11/02 14:18:11;;;;;;;9.15;3.05;;;12.60;99.90;;;;;;4981054;28;20057;-91
2021/11/02 14:20:49;;;;;;;11.32;2.28;;;12.70;99.90;;;;;;4985547;28;20065;-89
2021/11/02 14:23:39;;;;;;;12.35;2.20;;;12.80;99.90;;;;;;5017347;28;20060;-88
2021/11/02 14:26:13;;;;;;;7.60;2.20;;;13.00;99.90;;;;;;5012050;28;20390;-88
2021/11/02 14:28:50;;;;;;;5.90;1.70;;;13.10;99.90;;;;;;5017076;28;20152;-88
2021/11/02 14:31:45;;;;;;;5.28;1.48;;;13.10;99.90;;;;;;5001528;28;20052;-88
2021/11/02 14:34:37;;;;;;;6.25;1.35;;;13.20;99.30;;;;;;4998384;28;20057;-88
2021/11/02 14:37:25;;;;;;;11.50;3.63;;;13.30;99.90;;;;;;4982908;28;20049;-88
2021/11/02 14:39:57;;;;;;;4.78;1.40;;;13.40;99.90;;;;;;5022717;28;20050;-87
2021/11/02 14:42:46;;;;;;;2.58;1.40;;;13.60;99.90;;;;;;4665449;28;10001009;-86
2021/11/02 14:45:20;;;;;;;7.80;1.50;;;13.70;98.90;;;;;;4983572;28;20058;-90
2021/11/02 14:47:48;;;;;;;4.55;1.50;;;13.80;99.90;;;;;;4997686;28;20041;-88
2021/11/02 14:50:36;;;;;;;3.10;1.30;;;14.00;98.50;;;;;;4995274;28;20050;-90
2021/11/02 14:53:34;;;;;;;6.10;1.23;;;14.00;97.20;;;;;;4992965;28;20054;-86
2021/11/02 14:56:07;;;;;;;2.60;1.23;;;14.10;97.50;;;;;;5008472;28;20541;-88
2021/11/02 14:58:40;;;;;;;4.90;2.25;;;14.20;97.90;;;;;;5015338;28;20048;-87
2021/11/02 15:01:17;;;;;;;2.00;1.10;;;14.30;97.30;;;;;;5017580;28;20058;-89
2021/11/02 15:04:00;;;;;;;2.35;1.33;;;14.40;98.00;;;;;;4982439;28;20067;-88
2021/11/02 15:06:35;;;;;;;7.60;2.78;;;14.50;97.80;;;;;;5016667;28;20045;-87
2021/11/02 15:09:11;;;;;;;1.75;0.93;;;14.70;97.90;;;;;;4979130;28;20050;-87
2021/11/02 15:11:41;;;;;;;6.18;1.40;;;14.90;97.60;;;;;;5017514;28;20049;-86
2021/11/02 15:14:18;;;;;;;5.43;1.65;;;15.10;97.90;;;;;;5012125;28;20049;-85
2021/11/02 15:16:58;;;;;;;2.80;1.10;;;15.80;97.50;;;;;;4950582;28;20049;-87
2021/11/02 15:19:31;;;;;;;9.18;1.23;;;15.40;97.50;;;;;;5025968;28;20065;-86
2021/11/02 15:22:09;;;;;;;2.92;1.10;;;15.20;97.10;;;;;;4997541;28;20034;-89
2021/11/02 15:24:44;;;;;;;4.30;1.17;;;14.90;96.30;;;;;;4998948;28;20054;-89
2021/11/02 15:27:22;;;;;;;7.10;2.38;;;14.60;96.50;;;;;;5014480;28;20051;-88
2021/11/02 15:29:57;;;;;;;12.05;3.28;;;14.30;96.40;;;;;;4991148;28;20053;-88
2021/11/02 15:32:27;;;;;;;6.38;1.70;;;14.00;96.70;;;;;;5006814;28;20489;-87
2021/11/02 15:34:57;;;;;;;5.43;1.90;;;13.80;97.00;;;;;;4982720;28;20054;-87
2021/11/02 15:37:34;;;;;;;4.63;2.08;;;13.60;97.20;;;;;;5007525;28;20065;-88
2021/11/02 15:40:11;;;;;;;9.18;1.88;;;13.40;97.30;;;;;;5007762;28;20042;-87
2021/11/02 15:42:47;;;;;;;2.95;1.60;;;13.20;97.50;;;;;;4990405;28;20046;-86
2021/11/02 15:45:37;;;;;;;5.60;2.00;;;12.90;97.70;;;;;;4995871;28;20045;-88
2021/11/02 15:48:10;;;;;;;6.75;1.38;;;12.80;98.10;;;;;;4994237;28;20041;-88
2021/11/02 15:50:54;;;;;;;5.95;1.92;;;12.50;98.00;;;;;;5012795;28;20046;-88
2021/11/02 15:53:28;;;;;;;3.30;1.63;;;12.40;98.30;;;;;;4993969;28;20501;-86
2021/11/02 15:56:02;;;;;;;3.80;1.90;;;12.30;98.50;;;;;;5016822;28;20046;-90
2021/11/02 15:58:34;;;;;;;7.80;2.35;;;12.20;98.80;;;;;;5004205;28;20721;-88
2021/11/02 16:01:03;;;;;;;2.50;1.63;;;12.10;98.90;;;;;;4970710;28;20057;-89
2021/11/02 16:03:36;;;;;;;9.60;2.20;;;11.90;99.40;;;;;;4999912;28;20058;-89
2021/11/02 16:06:05;;;;;;;8.65;2.25;;;11.80;99.40;;;;;;5003016;28;20068;-88
2021/11/02 16:08:34;;;;;;;7.05;2.08;;;11.70;99.60;;;;;;5019317;28;20046;-89
2021/11/02 16:11:07;;;;;;;8.55;2.53;;;11.60;99.90;;;;;;5006167;28;20054;-88
2021/11/02 16:13:41;;;;;;;10.57;3.13;;;11.50;99.90;;;;;;5004357;28;20409;-89
2021/11/02 16:16:12;;;;;;;11.27;3.00;;;11.40;99.90;;;;;;4987118;28;20065;-86
2021/11/02 16:18:41;;;;;;;6.28;2.60;;;11.30;99.90;;;;;;4974496;28;20050;-88
2021/11/02 16:21:10;;;;;;;8.75;3.00;;;11.10;99.90;;;;;;4990867;28;20050;-88
2021/11/02 16:23:44;;;;;;;7.18;3.58;;;11.00;99.90;;;;;;4984109;28;20374;-85
2021/11/02 16:26:24;;;;;;;6.10;1.70;;;10.80;99.90;;;;;;4997657;28;20046;-89
2021/11/02 16:29:15;;;;;;;6.57;2.20;;;10.70;99.90;;;;;;5002874;28;20061;-88
2021/11/02 16:31:46;;;;;;;6.95;1.98;;;10.20;99.90;;;;;;5006514;28;20044;-88
2021/11/02 16:34:21;;;;;;;8.20;1.75;;;10.40;99.90;;;;;;4972444;28;20049;-86
2021/11/02 16:36:52;;;;;;;6.07;2.35;;;10.10;99.90;;;;;;4992292;28;20050;-87
2021/11/02 16:39:24;;;;;;;13.55;2.83;;;10.20;99.90;;;;;;4996107;28;20385;-86
2021/11/02 16:41:58;;;;;;;5.90;2.13;;;10.10;99.90;;;;;;4981502;28;20405;-87
2021/11/02 16:44:52;;;;;;;4.68;1.75;;;9.90;99.90;;;;;;5028408;28;20042;-87
2021/11/02 16:47:24;;;;;;;5.80;1.80;;;9.80;99.90;;;;;;5027530;28;20050;-89
2021/11/02 16:50:15;;;;;;;7.97;2.58;;;9.70;99.90;;;;;;4997678;28;20049;-88
2021/11/02 16:52:44;;;;;;;5.30;2.05;;;9.50;99.90;;;;;;5007644;28;20054;-87
2021/11/02 16:55:15;;;;;;;9.98;4.07;;;9.40;99.90;;;;;;5027207;28;20049;-88
2021/11/02 16:57:45;;;;;;;4.37;2.33;;;9.30;99.90;;;;;;4981752;28;20057;-90
2021/11/02 17:00:26;;;;;;;8.63;3.03;;;9.20;99.90;;;;;;4983259;28;20045;-89
2021/11/02 17:03:09;;;;;;;9.70;2.92;;;9.10;99.90;;;;;;4998973;28;20054;-88
2021/11/02 17:05:40;;;;;;;10.10;3.05;;;9.00;99.90;;;;;;4998953;28;20578;-89
2021/11/02 17:08:11;;;;;;;10.70;3.83;;;8.90;99.90;;;;;;4970791;28;20046;-89
2021/11/02 17:10:51;;;;;;;10.32;3.78;;;8.90;99.90;;;;;;4993511;28;20046;-89
2021/11/02 17:13:32;;;;;;;11.52;3.45;;;8.80;99.90;;;;;;5000386;28;20046;-89
2021/11/02 17:16:03;;;;;;;8.23;3.60;;;8.70;99.90;;;;;;4985945;28;20050;-93
2021/11/02 17:18:58;;;;;;;10.93;3.47;;;8.60;99.90;;;;;;5013118;28;20058;-88
2021/11/02 17:21:41;;;;;;;10.48;3.80;;;9.20;99.90;;;;;;4998331;28;20057;-91
2021/11/02 17:24:10;;;;;;;11.85;4.45;;;8.50;99.90;;;;;;4970571;28;20551;-88
2021/11/02 17:26:45;;;;;;;12.27;4.38;;;8.40;99.90;;;;;;5001243;28;20053;-90
2021/11/02 17:29:14;;;;;;;8.38;3.25;;;8.30;99.90;;;;;;4999143;28;20061;-89
2021/11/02 17:31:44;;;;;;;5.93;3.25;;;8.30;99.90;;;;;;5011935;28;20218;-89
2021/11/02 17:34:22;;;;;;;8.98;4.22;;;8.20;99.90;;;;;;4994643;28;20054;-90
2021/11/02 17:36:55;;;;;;;9.35;3.80;;;8.20;99.90;;;;;;5014176;28;20061;-89
2021/11/02 17:39:27;;;;;;;12.65;5.38;;;8.10;99.90;;;;;;4994798;28;20050;-92
2021/11/02 17:42:00;;;;;;;10.95;4.63;;;8.10;99.90;;;;;;5017438;28;20172;-91
2021/11/02 17:44:30;;;;;;;7.28;3.58;;;8.00;99.90;;;;;;4987740;28;20052;-92
2021/11/02 17:47:05;;;;;;;16.73;4.30;;;8.00;99.90;;;;;;4997204;28;20051;-92
2021/11/02 17:49:37;;;;;;;12.98;4.65;;;7.30;99.90;;;;;;5004576;28;20041;-89
2021/11/02 17:52:06;;;;;;;12.07;6.15;;;7.90;99.90;;;;;;5007794;28;20802;-91
2021/11/02 17:54:35;;;;;;;8.55;4.05;;;7.80;99.90;;;;;;4982153;28;20049;-91
2021/11/02 17:57:05;;;;;;;10.95;5.50;;;7.70;99.90;;;;;;5016860;28;20053;-90
2021/11/02 17:59:34;;;;;;;12.98;6.20;;;7.70;99.90;;;;;;4990748;28;20038;-91
2021/11/02 18:02:04;;;;;;;11.18;5.85;;;7.60;99.90;;;;;;5002731;28;20069;-90
2021/11/02 18:04:35;;;;;;;16.70;4.32;;;7.50;99.90;;;;;;5000492;28;20037;-91
2021/11/02 18:07:05;;;;;;;11.15;4.88;;;7.50;99.90;;;;;;5015700;28;20481;-92
2021/11/02 18:09:37;;;;;;;10.13;5.50;;;7.40;99.90;;;;;;5004530;28;20045;-89
2021/11/02 18:12:15;;;;;;;14.50;5.22;;;7.40;99.90;;;;;;4997921;28;20053;-88
2021/11/02 18:14:46;;;;;;;13.85;5.07;;;7.20;99.90;;;;;;5007559;28;20057;-89
2021/11/02 18:17:19;;;;;;;13.98;5.95;;;7.30;99.90;;;;;;5009982;28;20057;-90
2021/11/02 18:19:55;;;;;;;18.20;6.97;;;7.20;99.90;;;;;;4999444;28;20046;-88
2021/11/02 18:22:27;;;;;;;10.93;5.90;;;7.10;99.90;;;;;;4660659;28;10001614;-88
2021/11/02 18:24:58;;;;;;;18.90;6.18;;;7.20;99.90;;;;;;4990789;28;20061;-88
2021/11/02 18:27:27;;;;;;;16.15;6.97;;;7.20;99.90;;;;;;4995873;28;20486;-90
2021/11/02 18:29:55;;;;;;;14.65;6.28;;;7.10;99.90;;;;;;4993304;28;20053;-88
2021/11/02 18:32:24;;;;;;;19.67;9.80;;;7.10;99.90;;;;;;4974446;28;20047;-87
2021/11/02 18:34:53;;;;;;;18.55;8.15;;;7.10;99.90;;;;;;4976163;28;20054;-88
2021/11/02 18:37:21;;;;;;;14.07;7.47;;;7.10;99.90;;;;;;4998517;28;20038;-89
2021/11/02 18:39:49;;;;;;;16.17;8.20;;;7.00;99.90;;;;;;4978163;28;20065;-88
2021/11/02 18:42:17;;;;;;;16.05;8.30;;;7.00;99.90;;;;;;4997204;28;20042;-91
2021/11/02 18:44:46;;;;;;;20.08;8.27;;;7.00;99.90;;;;;;4995711;28;20038;-89
2021/11/02 18:47:16;;;;;;;21.02;7.30;;;7.00;99.90;;;;;;4999913;28;20285;-88
2021/11/02 18:49:45;;;;;;;18.52;8.18;;;6.90;99.90;;;;;;4992835;28;20410;-89
2021/11/02 18:52:16;;;;;;;12.23;6.47;;;6.90;99.90;;;;;;4992586;28;20057;-90
2021/11/02 18:54:46;;;;;;;14.35;6.95;;;6.90;99.90;;;;;;4992029;28;20058;-87
2021/11/02 18:57:16;;;;;;;;;;;6.80;99.90;;;;;;4994754;28;20046;-87
2021/11/02 18:59:44;;;;;;;15.25;6.78;;;6.80;99.90;;;;;;5026519;28;20306;-90
2021/11/02 19:02:12;;;;;;;15.77;6.55;;;6.80;99.90;;;;;;4993547;28;20057;-89
2021/11/02 19:04:41;;;;;;;14.55;5.28;;;7.20;99.90;;;;;;4992739;28;20058;-88
2021/11/02 19:07:11;;;;;;;11.13;5.65;;;6.70;99.90;;;;;;4994427;28;20043;-89
2021/11/02 19:09:39;;;;;;;11.95;5.13;;;6.70;99.90;;;;;;4997858;28;20057;-91
2021/11/02 19:12:11;;;;;;;15.73;5.07;;;6.70;99.90;;;;;;4961795;28;20050;-89
2021/11/02 19:14:41;;;;;;;13.88;4.78;;;6.70;99.90;;;;;;4974236;28;20061;-87